Ferndale, MI

4:53 AM EDT on October 24, 2014 (GMT -0400)
PleasantWeather | Change Station
CLOSE
Current Station
Personal Weather Station
Location: Huntington Woods, MI
Elevation: 213 m
Nearby Weather Stations

Elev 213 m 42.48 °N, 83.18 °W | Updated 4 seconds ago

Partly Cloudy
Partly Cloudy
2.7 °C
Feels Like 3 °C
N
0.0
Wind Variable Wind from WSW
Gusts 0.0 km/h

Today
High -- | Low -- °C
--% Chance of Precip.
Yesterday
High -- | Low -- °C
Precip. -- mm
7:56 AM 6:36 PM
New Moon, 0% visible
Pressure 1019 hPa
Visibility 16.1 kilometers
Clouds Clear
Windchill 3 °C
Dew Point 2 °C
Humidity 93%
Rainfall 0 mm
Snow Depth Not available.
UV 0 out of 12
Pollen .10 out of 12
PM2.5 Moderate
Flu Activity Sporadic
METAR KVLL 240835Z AUTO 00000KT 10SM CLR 05/02 A3009 RMK AO2 T00500022

More Conditions Fewer Conditions

Pressure 1019 hPa
Visibility 16.1 kilometers
Clouds Clear
Windchill 3 °C
Dew Point 2 °C
Humidity 93%
Rainfall 0 mm
Snow Depth Not available.
UV 0 out of 12
Pollen .10 out of 12
PM2.5 Moderate
Flu Activity Sporadic
METAR KVLL 240835Z AUTO 00000KT 10SM CLR 05/02 A3009 RMK AO2 T00500022

More Conditions Fewer Conditions

10-Day Weather Forecast

Almanac

Astronomy

Oct. 24, 2014 Rise Set
Actual Time 7:56 AM EDT 6:36 PM EDT
Civil Twilight 7:27 AM EDT 7:05 PM EDT
Nautical Twilight 6:54 AM EDT 7:38 PM EDT
Astronomical Twilight 6:21 AM EDT 8:10 PM EDT
Moon 8:34 AM EDT 7:14 PM EDT
Length of Visible Light 11h 37m
Length of Day
10h 40m
Tomorrow will be 2m 40s shorter.
New Moon, 0% of the Moon is Illuminated
Today
New Moon
Oct 30
First Quarter
Nov 6
Full
Nov 14
Last Quarter
Nov 22
New

Today's Extremes

State Highs State Lows

Community

WunderPhotos

Upload Photos

1,764,511 photos uploaded!

WunderBlogs® & News

Nearby

Air Quality

  Air Quality AQ Index Pollutant
Yesterday Good
PM10
Yesterday Good
OZONE
Current Moderate
PM2.5
Friday Moderate
PM2.5
Saturday Good
PM2.5
Sunday Good
PM2.5
Monday Moderate
PM2.5

Snow Depth

Station Depth Elevation
No new snow has been reported.

Earthquake Activity

City Distance Mag. Time & Date
No recent earthquake activity has been reported nearby.
Minimum magnitude displayed is 2.5.

Coastal Water Temperatures

Place Temperature
Marblehead, OH 11.7 °C

Nearby Weather Stations